Time;durP1;ratioP1;P1;durP2;ratioP2;P2;SDS_P1;SDS_P2;PMS_P1;PMS_P2;Temp;Humidity;BMP_temperature;BMP_pressure;BME280_temperature;BME280_humidity;BME280_pressure;Samples;Min_cycle;Max_cycle;Signal;HPM_P1;HPM_P2
2021/05/08 00:01:38;;;;;;;0.80;0.60;;;;;;;12.89;77.62;98604.98;1726963;81;21117;-51
2021/05/08 00:04:05;;;;;;;1.67;0.70;;;;;;;12.89;77.67;98590.13;1726211;81;21124;-51
2021/05/08 00:06:36;;;;;;;2.83;0.80;;;;;;;12.85;77.80;98582.73;1726432;81;21375;-51
2021/05/08 00:09:06;;;;;;;2.70;0.80;;;;;;;12.82;77.92;98579.42;1732231;81;21575;-50
2021/05/08 00:11:34;;;;;;;2.72;0.70;;;;;;;12.79;77.95;98580.50;1728626;81;20997;-51
2021/05/08 00:14:04;;;;;;;4.03;0.70;;;;;;;12.79;78.00;98597.19;1729589;81;21481;-51
2021/05/08 00:16:35;;;;;;;1.00;0.70;;;;;;;12.79;78.05;98591.30;1732522;81;21469;-51
2021/05/08 00:19:04;;;;;;;2.30;0.90;;;;;;;12.79;78.03;98584.55;1729096;81;22680;-51
2021/05/08 00:21:31;;;;;;;1.27;0.85;;;;;;;12.78;78.02;98579.27;1725526;81;21437;-51
2021/05/08 00:23:58;;;;;;;1.10;0.80;;;;;;;12.78;78.12;98589.58;1695369;81;21879;-51
2021/05/08 00:26:26;;;;;;;1.30;0.93;;;;;;;12.77;78.10;98595.95;1730888;81;21194;-50
2021/05/08 00:28:56;;;;;;;1.37;1.10;;;;;;;12.78;78.13;98602.22;1729025;81;21218;-51
2021/05/08 00:31:24;;;;;;;1.42;0.90;;;;;;;12.74;78.17;98604.30;1729078;81;21132;-51
2021/05/08 00:33:51;;;;;;;1.62;0.80;;;;;;;12.73;78.17;98596.31;1728704;81;21993;-51
2021/05/08 00:36:18;;;;;;;2.05;0.90;;;;;;;12.73;78.21;98582.81;1728154;81;21210;-50
2021/05/08 00:38:45;;;;;;;1.00;0.90;;;;;;;12.72;78.27;98577.91;1728278;81;21208;-50
2021/05/08 00:41:14;;;;;;;1.10;1.00;;;;;;;12.73;78.31;98585.02;1724546;81;21187;-51
2021/05/08 00:43:42;;;;;;;1.40;1.27;;;;;;;12.73;78.28;98581.46;1732725;81;21403;-51
2021/05/08 00:46:09;;;;;;;1.98;1.37;;;;;;;12.74;78.29;98576.44;1735504;81;21693;-51
2021/05/08 00:48:37;;;;;;;1.77;1.62;;;;;;;12.73;78.29;98567.48;1735958;81;21577;-51
2021/05/08 00:51:05;;;;;;;2.98;2.65;;;;;;;12.72;78.22;98564.40;1735141;81;21539;-50
2021/05/08 00:53:33;;;;;;;1.67;1.35;;;;;;;12.71;78.24;98553.22;1733840;81;21187;-50
2021/05/08 00:56:00;;;;;;;1.55;1.30;;;;;;;12.71;78.25;98563.16;1737650;80;21738;-50
2021/05/08 00:58:29;;;;;;;2.12;1.00;;;;;;;12.71;78.24;98573.47;1708822;81;21642;-51
2021/05/08 01:00:56;;;;;;;1.37;1.10;;;;;;;12.72;78.25;98573.84;1735776;81;21191;-52
2021/05/08 01:03:26;;;;;;;1.27;0.72;;;;;;;12.72;78.22;98576.55;1736300;80;21195;-51
2021/05/08 01:05:53;;;;;;;2.70;0.90;;;;;;;12.72;78.20;98569.80;1735246;81;21183;-51
2021/05/08 01:08:21;;;;;;;1.20;1.02;;;;;;;12.72;78.12;98575.20;1713862;81;21224;-51
2021/05/08 01:10:48;;;;;;;1.85;1.20;;;;;;;12.71;78.09;98579.36;1733941;81;21815;-51
2021/05/08 01:13:17;;;;;;;1.15;0.98;;;;;;;12.69;78.11;98584.87;1737125;80;21103;-51
2021/05/08 01:15:46;;;;;;;1.30;1.00;;;;;;;12.69;78.02;98578.61;1733146;81;21203;-51
2021/05/08 01:18:14;;;;;;;0.90;0.80;;;;;;;12.67;77.94;98575.19;1732210;81;21113;-51
2021/05/08 01:20:42;;;;;;;2.62;0.70;;;;;;;12.65;77.92;98581.18;1732099;81;22417;-51
2021/05/08 01:23:10;;;;;;;1.40;0.78;;;;;;;12.63;77.95;98582.64;1736847;80;21191;-51
2021/05/08 01:25:38;;;;;;;2.67;0.80;;;;;;;12.59;78.00;98587.88;1672315;80;21189;-52
2021/05/08 01:28:05;;;;;;;1.07;0.70;;;;;;;12.59;78.09;98590.58;1733054;81;21183;-51
2021/05/08 01:30:35;;;;;;;0.72;0.70;;;;;;;12.59;78.15;98593.80;1733135;81;22142;-51
2021/05/08 01:33:06;;;;;;;1.50;0.70;;;;;;;12.59;78.22;98591.09;1735720;81;21983;-51
2021/05/08 01:35:34;;;;;;;1.10;0.70;;;;;;;12.60;78.14;98594.14;1738857;81;21140;-51
2021/05/08 01:38:02;;;;;;;2.15;0.80;;;;;;;12.58;78.10;98594.28;1735208;80;21215;-51
2021/05/08 01:40:34;;;;;;;1.90;0.80;;;;;;;12.58;78.05;98590.23;1729365;81;21184;-51
2021/05/08 01:43:02;;;;;;;2.70;0.80;;;;;;;12.55;78.03;98587.75;1727717;80;22048;-51
2021/05/08 01:45:30;;;;;;;2.35;0.72;;;;;;;12.55;78.01;98584.19;1700909;82;21458;-51
2021/05/08 01:47:59;;;;;;;1.52;0.70;;;;;;;12.55;78.04;98585.53;1703885;82;21532;-51
2021/05/08 01:50:28;;;;;;;1.32;0.60;;;;;;;12.54;78.07;98586.51;1708003;82;21562;-52
2021/05/08 01:52:55;;;;;;;0.90;0.70;;;;;;;12.54;78.14;98589.21;1704238;82;21199;-51
2021/05/08 01:55:26;;;;;;;2.20;0.78;;;;;;;12.54;78.14;98593.26;1704008;82;21221;-51
2021/05/08 01:57:55;;;;;;;0.80;0.70;;;;;;;12.53;78.19;98582.08;1699745;82;21213;-51
2021/05/08 02:00:38;;;;;;;0.80;0.70;;;;;;;12.53;78.19;98580.73;1703475;82;21146;-52
2021/05/08 02:03:06;;;;;;;0.88;0.60;;;;;;;12.53;78.18;98575.34;1704016;82;21947;-51
2021/05/08 02:05:37;;;;;;;1.20;0.80;;;;;;;12.53;78.15;98582.08;1703387;82;21568;-51
2021/05/08 02:08:08;;;;;;;0.80;0.70;;;;;;;12.51;78.12;98574.95;1704276;82;21163;-51
2021/05/08 02:10:35;;;;;;;0.70;0.60;;;;;;;12.50;78.03;98565.66;1706047;82;21746;-51
2021/05/08 02:13:04;;;;;;;0.90;0.70;;;;;;;12.50;78.04;98573.75;1678130;82;21222;-51
2021/05/08 02:15:32;;;;;;;2.87;0.70;;;;;;;12.49;77.95;98580.12;1677011;82;21536;-51
2021/05/08 02:18:00;;;;;;;1.40;0.60;;;;;;;12.48;77.98;98584.66;1703545;82;21144;-51
2021/05/08 02:20:29;;;;;;;1.17;0.80;;;;;;;12.49;78.02;98585.52;1703410;82;21523;-51
2021/05/08 02:22:59;;;;;;;0.60;0.60;;;;;;;12.48;78.04;98583.80;1705748;82;22096;-51
2021/05/08 02:25:28;;;;;;;0.82;0.60;;;;;;;12.49;78.05;98582.33;1704041;82;21568;-51
2021/05/08 02:27:55;;;;;;;0.78;0.70;;;;;;;12.48;78.01;98578.39;1704399;82;21116;-51
2021/05/08 02:30:29;;;;;;;1.32;0.70;;;;;;;12.46;77.96;98575.80;1706755;82;21124;-51
2021/05/08 02:32:59;;;;;;;;;;;;;;;12.45;77.93;98581.31;1707293;82;21334;-51
2021/05/08 02:35:26;;;;;;;0.75;0.65;;;;;;;12.43;77.94;98576.50;1700325;82;21372;-50
2021/05/08 02:37:56;;;;;;;1.80;0.60;;;;;;;12.39;78.00;98568.28;1677810;82;21531;-51
2021/05/08 02:40:29;;;;;;;1.45;0.68;;;;;;;12.37;78.12;98568.87;1706188;82;21107;-51
2021/05/08 02:42:58;;;;;;;;;;;;;;;12.35;78.18;98562.23;1681543;81;21120;-51
2021/05/08 02:45:25;;;;;;;0.80;0.80;;;;;;;12.36;78.19;98567.14;1729595;81;20284;-51
2021/05/08 02:47:53;;;;;;;0.80;0.70;;;;;;;12.35;78.20;98573.52;1700084;82;21368;-51
2021/05/08 02:50:22;;;;;;;1.00;0.70;;;;;;;12.31;78.19;98571.55;1729727;81;21587;-51
2021/05/08 02:52:52;;;;;;;1.22;0.70;;;;;;;12.31;78.22;98576.08;1730947;81;21676;-51
2021/05/08 02:55:21;;;;;;;0.90;0.65;;;;;;;12.32;78.26;98581.86;1729396;81;21654;-51
2021/05/08 02:57:49;;;;;;;1.00;0.70;;;;;;;12.32;78.27;98570.58;1726565;81;21113;-51
2021/05/08 03:00:18;;;;;;;0.80;0.70;;;;;;;12.34;78.24;98564.55;1729117;81;21445;-51
2021/05/08 03:02:45;;;;;;;2.30;1.00;;;;;;;12.36;78.27;98553.66;1701208;81;21126;-51
2021/05/08 03:05:14;;;;;;;1.52;0.65;;;;;;;12.36;78.25;98546.91;1727487;81;21132;-51
2021/05/08 03:07:42;;;;;;;0.95;0.80;;;;;;;12.34;78.28;98556.46;1728031;81;21543;-51
2021/05/08 03:10:10;;;;;;;1.77;0.80;;;;;;;12.32;78.33;98567.87;1723526;81;21216;-51
2021/05/08 03:12:38;;;;;;;1.60;1.00;;;;;;;12.32;78.40;98573.77;1727199;81;21278;-51
2021/05/08 03:15:08;;;;;;;1.00;0.90;;;;;;;12.30;78.47;98570.31;1725358;81;21206;-51
2021/05/08 03:17:35;;;;;;;1.10;1.00;;;;;;;12.29;78.51;98569.93;1729030;81;21200;-51
2021/05/08 03:20:04;;;;;;;1.10;0.80;;;;;;;12.30;78.55;98567.61;1697702;81;22261;-51
2021/05/08 03:22:32;;;;;;;1.92;0.75;;;;;;;12.31;78.55;98569.34;1726182;81;21195;-51
2021/05/08 03:25:01;;;;;;;1.10;0.80;;;;;;;12.33;78.54;98570.09;1729788;81;21681;-51
2021/05/08 03:27:28;;;;;;;2.67;1.02;;;;;;;12.33;78.53;98575.48;1724878;81;21179;-51
2021/05/08 03:29:56;;;;;;;2.62;0.90;;;;;;;12.34;78.60;98570.44;1656401;83;21523;-51
2021/05/08 03:32:24;;;;;;;1.60;1.00;;;;;;;12.35;78.59;98564.94;1724392;81;21203;-51
2021/05/08 03:34:54;;;;;;;1.40;0.98;;;;;;;12.36;78.63;98562.61;1726961;81;21214;-51
2021/05/08 03:37:23;;;;;;;1.67;1.00;;;;;;;12.36;78.66;98562.61;1723166;81;21851;-50
2021/05/08 03:39:52;;;;;;;1.85;1.10;;;;;;;12.38;78.61;98563.37;1726971;81;21215;-51
2021/05/08 03:42:19;;;;;;;1.05;0.80;;;;;;;12.38;78.59;98566.06;1723978;81;21529;-50
2021/05/08 03:44:47;;;;;;;1.22;0.85;;;;;;;12.38;78.55;98556.62;1700741;81;21212;-51
2021/05/08 03:47:14;;;;;;;1.95;0.70;;;;;;;12.39;78.54;98558.84;1689513;82;21629;-51
2021/05/08 03:49:42;;;;;;;1.25;0.68;;;;;;;12.37;78.55;98561.64;1692844;82;21472;-51
2021/05/08 03:52:09;;;;;;;1.10;0.80;;;;;;;12.39;78.59;98565.58;1689561;82;21229;-50
2021/05/08 03:54:38;;;;;;;2.17;0.75;;;;;;;12.39;78.59;98569.14;1690257;82;21670;-51
2021/05/08 03:57:06;;;;;;;3.92;0.70;;;;;;;12.41;78.63;98563.64;1689023;82;21187;-51
2021/05/08 03:59:35;;;;;;;1.17;0.85;;;;;;;12.44;78.66;98566.09;1691025;82;21198;-50
2021/05/08 04:02:02;;;;;;;3.05;0.98;;;;;;;12.45;78.67;98574.08;1690647;82;21590;-51
2021/05/08 04:04:29;;;;;;;1.40;0.98;;;;;;;12.46;78.65;98570.41;1690756;82;21274;-51
2021/05/08 04:06:56;;;;;;;1.82;0.80;;;;;;;12.46;78.65;98574.94;1690713;82;21681;-51
2021/05/08 04:09:24;;;;;;;1.00;0.90;;;;;;;12.48;78.67;98579.74;1692495;82;21216;-51
2021/05/08 04:11:52;;;;;;;2.85;0.70;;;;;;;12.49;78.73;98576.07;1690762;82;21159;-50
2021/05/08 04:14:19;;;;;;;0.72;0.70;;;;;;;12.51;78.79;98580.84;1690790;82;21505;-50
2021/05/08 04:16:46;;;;;;;1.37;0.60;;;;;;;12.54;78.81;98594.61;1659383;83;21186;-50
2021/05/08 04:19:13;;;;;;;1.12;0.80;;;;;;;12.58;78.93;98592.94;1692356;82;21235;-51
2021/05/08 04:21:41;;;;;;;2.37;0.70;;;;;;;12.60;78.99;98588.25;1692476;82;21202;-50
2021/05/08 04:24:09;;;;;;;1.00;0.80;;;;;;;12.62;79.00;98589.02;1691722;82;21227;-51
2021/05/08 04:26:37;;;;;;;0.88;0.80;;;;;;;12.65;79.03;98603.64;1690044;82;21597;-51
2021/05/08 04:29:04;;;;;;;2.15;0.72;;;;;;;12.67;79.02;98614.33;1690773;82;21247;-51
2021/05/08 04:31:33;;;;;;;1.00;0.78;;;;;;;12.70;79.01;98612.73;1692740;82;21170;-50
2021/05/08 04:34:02;;;;;;;1.30;0.78;;;;;;;12.76;78.94;98605.55;1692005;82;21294;-50
2021/05/08 04:36:30;;;;;;;2.55;0.90;;;;;;;12.77;78.83;98609.94;1692570;82;21211;-50
2021/05/08 04:38:57;;;;;;;3.05;0.90;;;;;;;12.77;78.76;98609.45;1688888;82;21376;-50
2021/05/08 04:41:25;;;;;;;3.75;1.17;;;;;;;12.77;78.67;98605.89;1689903;82;21314;-51
2021/05/08 04:43:53;;;;;;;2.87;1.12;;;;;;;12.76;78.66;98606.37;1698211;81;21802;-50
2021/05/08 04:46:23;;;;;;;3.50;1.45;;;;;;;12.74;78.54;98619.16;1731246;81;22050;-51
2021/05/08 04:51:27;;;;;;;2.67;1.30;;;;;;;12.71;78.36;98619.86;1877711;75;23376;-51
2021/05/08 04:53:55;;;;;;;2.00;1.02;;;;;;;12.65;78.35;98623.02;1842297;76;21037;-50
2021/05/08 04:56:23;;;;;;;3.40;1.10;;;;;;;12.61;78.32;98629.13;1803752;78;21364;-50
2021/05/08 04:58:50;;;;;;;1.42;1.32;;;;;;;12.61;78.39;98635.88;1767152;79;21589;-50
2021/05/08 05:01:19;;;;;;;1.40;1.10;;;;;;;12.64;78.35;98645.11;1782556;78;21450;-50
2021/05/08 05:03:48;;;;;;;1.75;1.12;;;;;;;12.67;78.29;98643.55;1801173;77;21166;-50
2021/05/08 05:06:16;;;;;;;2.47;1.07;;;;;;;12.66;78.14;98642.30;1804714;78;21141;-50
2021/05/08 05:08:44;;;;;;;3.87;1.10;;;;;;;12.64;77.98;98632.96;1805888;77;21379;-50
2021/05/08 05:11:12;;;;;;;1.82;1.45;;;;;;;12.65;77.72;98637.39;1784987;78;21173;-50
2021/05/08 05:13:39;;;;;;;1.75;1.25;;;;;;;12.62;77.70;98637.60;1801001;78;21233;-50
2021/05/08 05:16:09;;;;;;;1.87;1.20;;;;;;;12.60;77.76;98639.55;1783215;78;21219;-50
2021/05/08 05:18:38;;;;;;;1.35;1.10;;;;;;;12.56;77.74;98634.02;1776238;78;21160;-50
2021/05/08 05:21:07;;;;;;;4.35;1.02;;;;;;;12.52;77.76;98640.60;1807234;78;21375;-49
2021/05/08 05:23:35;;;;;;;2.62;1.10;;;;;;;12.50;77.70;98647.97;1792592;78;21521;-49
2021/05/08 05:26:02;;;;;;;6.62;1.02;;;;;;;12.48;77.62;98647.22;1784287;78;21492;-49
2021/05/08 05:28:30;;;;;;;1.17;1.02;;;;;;;12.49;77.53;98653.86;1800500;78;21097;-49
2021/05/08 05:30:58;;;;;;;1.20;1.10;;;;;;;12.48;77.31;98652.13;1803554;78;21107;-50
2021/05/08 05:33:25;;;;;;;3.58;1.05;;;;;;;12.49;77.16;98658.39;1805247;78;21490;-51
2021/05/08 05:35:55;;;;;;;0.80;0.80;;;;;;;12.46;76.93;98666.70;1788055;79;21170;-50
2021/05/08 05:38:23;;;;;;;2.02;0.85;;;;;;;12.42;76.74;98670.09;1779400;80;21711;-49
2021/05/08 05:40:53;;;;;;;0.65;0.60;;;;;;;12.38;76.60;98659.17;1782599;79;21146;-51
2021/05/08 05:43:21;;;;;;;0.93;0.60;;;;;;;12.36;76.56;98663.80;1777970;79;21103;-50
2021/05/08 05:45:48;;;;;;;1.55;0.70;;;;;;;12.37;76.51;98659.27;1785512;78;21542;-50
2021/05/08 05:48:20;;;;;;;0.85;0.70;;;;;;;12.38;76.60;98667.27;1775826;79;21447;-50
2021/05/08 05:50:48;;;;;;;0.82;0.80;;;;;;;12.39;76.48;98654.63;1748964;79;21530;-50
2021/05/08 05:53:16;;;;;;;2.15;0.80;;;;;;;12.38;76.36;98655.61;1809251;78;21480;-49
2021/05/08 05:55:44;;;;;;;1.35;0.75;;;;;;;12.37;76.34;98657.92;1814589;78;21106;-50
2021/05/08 05:58:12;;;;;;;1.77;0.70;;;;;;;12.36;76.38;98659.76;1803650;78;21407;-50
2021/05/08 06:00:40;;;;;;;0.60;0.55;;;;;;;12.33;76.55;98661.35;1808275;78;21517;-50
2021/05/08 06:03:10;;;;;;;0.60;0.50;;;;;;;12.30;76.63;98670.14;1780824;78;21112;-51
2021/05/08 06:05:39;;;;;;;0.88;0.60;;;;;;;12.26;76.57;98675.36;1788775;78;21878;-50
2021/05/08 06:08:12;;;;;;;0.65;0.50;;;;;;;12.24;76.47;98673.29;1782600;79;21396;-50
2021/05/08 06:10:39;;;;;;;1.05;0.70;;;;;;;12.22;76.40;98679.28;1789589;78;21664;-48
2021/05/08 06:13:07;;;;;;;1.67;0.60;;;;;;;12.18;76.43;98685.84;1815990;78;21134;-49
2021/05/08 06:15:35;;;;;;;1.82;0.60;;;;;;;12.12;76.51;98689.37;1813673;77;21581;-48
2021/05/08 06:18:06;;;;;;;0.60;0.60;;;;;;;12.07;76.53;98686.16;1805869;78;21103;-48
2021/05/08 06:20:33;;;;;;;0.53;0.50;;;;;;;12.04;76.61;98697.63;1809846;77;21108;-48
2021/05/08 06:23:02;;;;;;;1.45;0.30;;;;;;;12.00;76.50;98696.97;1808133;78;22236;-49
2021/05/08 06:25:30;;;;;;;0.70;0.50;;;;;;;11.96;76.49;98708.97;1783648;78;21186;-49
2021/05/08 06:28:00;;;;;;;1.62;0.50;;;;;;;11.94;76.58;98702.81;1777452;80;21201;-49
2021/05/08 06:30:28;;;;;;;1.10;0.50;;;;;;;11.93;76.68;98705.13;1811490;77;21111;-50
2021/05/08 06:32:56;;;;;;;0.60;0.50;;;;;;;11.91;76.68;98707.58;1780266;78;21776;-50
2021/05/08 06:35:25;;;;;;;1.12;0.47;;;;;;;11.85;76.64;98706.63;1772844;80;21862;-50
2021/05/08 06:37:54;;;;;;;0.60;0.40;;;;;;;11.80;76.66;98707.45;1781649;78;21134;-49
2021/05/08 06:40:22;;;;;;;0.95;0.50;;;;;;;11.75;76.70;98707.75;1812289;77;21114;-49
2021/05/08 06:42:50;;;;;;;0.65;0.50;;;;;;;11.71;76.79;98712.48;1811054;78;21897;-48
2021/05/08 06:45:19;;;;;;;0.40;0.40;;;;;;;11.68;76.67;98710.47;1807960;77;21633;-49
2021/05/08 06:47:49;;;;;;;0.90;0.53;;;;;;;11.64;76.81;98718.41;1772977;80;21989;-49
2021/05/08 06:50:17;;;;;;;0.72;0.60;;;;;;;11.60;77.00;98717.73;1784856;78;21483;-49
2021/05/08 06:52:45;;;;;;;0.90;0.65;;;;;;;11.59;76.97;98724.57;1787608;79;21203;-50
2021/05/08 06:55:14;;;;;;;1.07;0.50;;;;;;;11.57;77.07;98726.53;1783438;79;21534;-50
2021/05/08 06:57:43;;;;;;;0.70;0.50;;;;;;;11.54;77.08;98734.34;1783089;79;21198;-50
2021/05/08 07:00:13;;;;;;;0.50;0.50;;;;;;;11.52;77.12;98744.34;1778871;79;21222;-50
2021/05/08 07:02:41;;;;;;;0.65;0.40;;;;;;;11.51;77.12;98741.75;1776722;78;22314;-50
2021/05/08 07:05:09;;;;;;;0.82;0.50;;;;;;;11.51;77.18;98745.80;1802491;78;21156;-49
2021/05/08 07:07:39;;;;;;;0.50;0.50;;;;;;;11.50;77.21;98746.28;1784096;79;21120;-50
2021/05/08 07:10:08;;;;;;;1.17;0.40;;;;;;;11.45;77.26;98753.82;1781807;78;21226;-49
2021/05/08 07:12:39;;;;;;;0.78;0.40;;;;;;;11.42;77.16;98758.53;1793094;79;21182;-48
2021/05/08 07:15:08;;;;;;;1.07;0.40;;;;;;;11.39;77.07;98756.94;1808187;77;21182;-49
2021/05/08 07:17:36;;;;;;;1.90;0.40;;;;;;;11.34;76.98;98761.75;1779279;78;21152;-50
2021/05/08 07:20:06;;;;;;;0.70;0.68;;;;;;;11.30;77.03;98774.58;1800297;78;21190;-49
2021/05/08 07:22:34;;;;;;;0.40;0.30;;;;;;;11.26;77.01;98779.77;1778974;79;21140;-48
2021/05/08 07:25:02;;;;;;;0.53;0.30;;;;;;;11.23;76.91;98777.27;1806287;77;22110;-50
2021/05/08 07:27:30;;;;;;;0.30;0.30;;;;;;;11.23;76.70;98787.18;1804298;78;21223;-49
2021/05/08 07:29:59;;;;;;;0.45;0.20;;;;;;;11.22;76.86;98786.83;1804137;78;21657;-49
2021/05/08 07:32:27;;;;;;;0.50;0.40;;;;;;;11.22;76.94;98795.78;1787557;79;21522;-49
2021/05/08 07:34:56;;;;;;;0.35;0.30;;;;;;;11.23;76.95;98809.59;1802832;77;21155;-50
2021/05/08 07:37:23;;;;;;;0.53;0.40;;;;;;;11.23;76.83;98812.30;1803614;78;22967;-50
2021/05/08 07:39:51;;;;;;;0.40;0.30;;;;;;;11.20;76.84;98821.08;1802390;78;21211;-49
2021/05/08 07:42:18;;;;;;;0.40;0.30;;;;;;;11.16;76.89;98831.66;1780370;78;21681;-50
2021/05/08 07:44:46;;;;;;;1.30;0.40;;;;;;;11.11;76.70;98846.78;1805183;78;21123;-49
2021/05/08 07:47:13;;;;;;;0.85;0.40;;;;;;;10.95;75.88;98846.91;1776928;79;21193;-49
2021/05/08 07:49:41;;;;;;;0.95;0.50;;;;;;;10.75;75.42;98862.10;1812117;78;21210;-49
2021/05/08 07:52:09;;;;;;;0.80;0.60;;;;;;;10.56;74.87;98868.24;1784802;79;21158;-49
2021/05/08 07:54:37;;;;;;;0.70;0.55;;;;;;;10.36;74.56;98883.42;1793489;78;21206;-49
2021/05/08 07:59:28;;;;;;;1.30;0.53;;;;;;;10.10;74.99;98878.23;1791260;77;22449;-50
2021/05/08 08:01:55;;;;;;;2.22;0.50;;;;;;;9.99;75.29;98884.25;1770923;78;21234;-51
2021/05/08 08:04:22;;;;;;;0.60;0.60;;;;;;;9.97;75.61;98888.84;1771559;78;21218;-50
2021/05/08 08:06:50;;;;;;;2.83;0.50;;;;;;;9.97;75.51;98888.84;1770790;78;21594;-51
2021/05/08 08:09:17;;;;;;;1.37;0.70;;;;;;;9.97;75.58;98886.63;1769601;78;21634;-50
2021/05/08 08:11:46;;;;;;;3.17;0.70;;;;;;;9.96;75.55;98890.27;1769808;78;21891;-49
2021/05/08 08:14:14;;;;;;;0.80;0.60;;;;;;;9.96;75.62;98892.48;1773136;78;20937;-50
2021/05/08 08:16:43;;;;;;;0.55;0.50;;;;;;;9.96;75.82;98892.96;1772059;78;21001;-49
2021/05/08 08:19:10;;;;;;;3.08;0.50;;;;;;;9.98;75.91;98899.98;1771640;78;21290;-50
2021/05/08 08:21:38;;;;;;;0.55;0.55;;;;;;;10.00;76.04;98908.84;1772210;78;21009;-50
2021/05/08 08:24:07;;;;;;;1.37;0.50;;;;;;;10.03;75.55;98907.80;1769534;78;21110;-50
2021/05/08 08:26:36;;;;;;;0.50;0.50;;;;;;;10.05;75.77;98919.30;1770551;78;21491;-49
2021/05/08 08:29:03;;;;;;;0.60;0.50;;;;;;;10.05;75.51;98912.58;1772719;78;22196;-50
2021/05/08 08:31:31;;;;;;;0.53;0.50;;;;;;;10.04;75.50;98907.68;1772347;78;21158;-49
2021/05/08 08:33:58;;;;;;;0.70;0.50;;;;;;;10.01;75.32;98912.39;1771650;78;21535;-51
2021/05/08 08:36:25;;;;;;;0.60;0.50;;;;;;;10.02;75.64;98926.23;1771084;78;21088;-50
2021/05/08 08:38:53;;;;;;;0.68;0.40;;;;;;;10.01;75.62;98924.49;1772120;78;21548;-49
2021/05/08 08:41:20;;;;;;;0.60;0.50;;;;;;;10.03;75.57;98924.80;1772163;78;21444;-50
2021/05/08 08:43:48;;;;;;;0.60;0.50;;;;;;;10.04;74.99;98928.33;1733149;80;21566;-50
2021/05/08 08:46:17;;;;;;;0.80;0.60;;;;;;;10.01;75.24;98938.80;1728836;81;21163;-50
2021/05/08 08:48:44;;;;;;;0.70;0.60;;;;;;;9.98;75.16;98940.80;1733335;80;21116;-50
2021/05/08 08:51:15;;;;;;;2.17;0.40;;;;;;;9.93;75.44;98942.89;1727382;80;21124;-50
2021/05/08 08:53:43;;;;;;;0.47;0.42;;;;;;;9.91;75.53;98934.91;1701437;81;21226;-52
2021/05/08 08:56:10;;;;;;;0.50;0.30;;;;;;;9.88;75.50;98945.83;1730788;80;21433;-50
2021/05/08 08:58:39;;;;;;;0.77;0.30;;;;;;;9.86;75.62;98937.89;1718482;81;21129;-50
2021/05/08 09:01:07;;;;;;;0.50;0.30;;;;;;;9.88;75.55;98941.33;1711360;82;21416;-50
2021/05/08 09:03:34;;;;;;;0.40;0.40;;;;;;;9.90;75.53;98947.09;1709905;82;21880;-50
2021/05/08 09:06:02;;;;;;;0.40;0.20;;;;;;;9.87;75.54;98955.72;1687736;82;22807;-50
2021/05/08 09:08:31;;;;;;;1.80;0.30;;;;;;;9.87;75.46;98951.69;1695559;82;21167;-50
2021/05/08 09:11:18;;;;;;;0.30;0.30;;;;;;;9.84;75.40;98951.88;1684913;82;21222;-50
2021/05/08 09:14:23;;;;;;;1.47;0.20;;;;;;;9.84;75.28;98958.61;1860723;74;22664;-50
2021/05/08 09:17:09;;;;;;;0.73;0.20;;;;;;;9.78;75.37;98961.62;1837416;75;21135;-50
2021/05/08 09:19:40;;;;;;;0.30;0.30;;;;;;;9.82;75.49;98960.98;1842943;75;22080;-51
2021/05/08 09:22:33;;;;;;;0.30;0.28;;;;;;;9.91;76.12;98959.59;1837086;76;21186;-50
2021/05/08 09:25:16;;;;;;;0.50;0.20;;;;;;;9.97;76.25;98958.74;1837519;75;21012;-50
2021/05/08 09:27:47;;;;;;;2.00;0.20;;;;;;;10.09;76.31;98954.48;1782138;78;21537;-51
2021/05/08 09:30:23;;;;;;;0.70;0.30;;;;;;;10.16;75.72;98957.19;1804082;77;21234;-50
2021/05/08 09:33:02;;;;;;;0.23;0.20;;;;;;;10.18;75.36;98965.59;1784027;78;21277;-50
2021/05/08 09:35:36;;;;;;;0.20;0.20;;;;;;;10.14;74.49;98968.52;1781794;78;21016;-50
2021/05/08 09:38:11;;;;;;;0.28;0.20;;;;;;;10.11;74.11;98968.71;1779394;78;21398;-50
2021/05/08 09:40:47;;;;;;;0.20;0.10;;;;;;;10.08;73.91;98975.60;1779656;78;21274;-49
2021/05/08 09:43:18;;;;;;;0.10;0.10;;;;;;;10.07;73.77;98969.83;1767817;79;21142;-49
2021/05/08 09:45:47;;;;;;;0.40;0.20;;;;;;;10.04;73.59;98982.97;1763153;79;21447;-50
2021/05/08 09:48:26;;;;;;;0.30;0.10;;;;;;;10.02;73.24;98981.34;1764343;79;21522;-50
2021/05/08 09:51:22;;;;;;;0.20;0.10;;;;;;;10.03;73.23;98987.12;1759897;79;21178;-51
2021/05/08 09:53:53;;;;;;;0.50;0.20;;;;;;;10.07;73.06;98981.45;1764190;79;21923;-51
2021/05/08 09:56:39;;;;;;;0.17;0.17;;;;;;;10.15;72.77;98985.03;1765892;79;21177;-50
2021/05/08 10:02:14;;;;;;;0.20;0.20;;;;;;;10.29;72.59;98985.14;1872430;75;23344;-51
2021/05/08 10:04:49;;;;;;;0.25;0.10;;;;;;;10.31;72.74;98975.14;1805093;78;21176;-50
2021/05/08 10:07:22;;;;;;;0.13;0.10;;;;;;;10.34;72.44;98987.07;1780330;78;21056;-51
2021/05/08 10:09:56;;;;;;;0.85;0.20;;;;;;;10.43;72.08;98989.70;1810413;78;21073;-50
2021/05/08 10:12:27;;;;;;;0.10;0.10;;;;;;;10.47;72.01;98985.37;1785933;78;21546;-50
2021/05/08 10:14:58;;;;;;;0.30;0.20;;;;;;;10.51;71.55;98993.66;1776121;79;21150;-50
2021/05/08 10:17:29;;;;;;;0.23;0.13;;;;;;;10.57;71.79;99004.52;1807971;78;21170;-51
2021/05/08 10:20:08;;;;;;;0.30;0.20;;;;;;;10.66;71.57;99012.05;1778520;79;21357;-51
2021/05/08 10:22:46;;;;;;;0.35;0.20;;;;;;;10.73;71.27;99023.30;1782547;78;21179;-49
2021/05/08 10:25:14;;;;;;;3.70;0.28;;;;;;;10.78;70.57;99013.14;1785596;79;21235;-49
2021/05/08 10:27:41;;;;;;;0.20;0.10;;;;;;;10.81;69.49;99017.84;1784814;78;21597;-52
2021/05/08 10:30:25;;;;;;;1.65;0.20;;;;;;;10.84;68.93;99016.80;1808127;78;21413;-49
2021/05/08 10:32:53;;;;;;;0.42;0.20;;;;;;;10.81;67.87;99025.05;1809851;78;21744;-51
2021/05/08 10:35:30;;;;;;;1.32;0.20;;;;;;;10.78;67.74;99027.47;1778035;79;21190;-51
2021/05/08 10:38:20;;;;;;;0.33;0.23;;;;;;;10.80;67.78;99030.91;1750004;80;21186;-50
2021/05/08 10:40:59;;;;;;;0.40;0.20;;;;;;;10.81;67.24;99034.00;1790889;78;21214;-51
2021/05/08 10:43:52;;;;;;;0.30;0.28;;;;;;;10.76;67.16;99030.73;1781907;78;21600;-50
2021/05/08 10:46:24;;;;;;;0.20;0.20;;;;;;;10.68;67.31;99038.88;1782841;78;21205;-50
2021/05/08 10:49:13;;;;;;;0.20;0.20;;;;;;;10.57;67.32;99043.06;1781860;78;21178;-50
2021/05/08 10:52:00;;;;;;;0.20;0.20;;;;;;;10.50;67.89;99052.94;1778573;78;21186;-51
2021/05/08 10:54:43;;;;;;;0.65;0.20;;;;;;;10.46;68.32;99057.63;1756150;80;21711;-51
2021/05/08 10:57:20;;;;;;;0.33;0.20;;;;;;;10.46;68.59;99067.04;1775424;79;21192;-52
2021/05/08 11:00:12;;;;;;;3.60;0.20;;;;;;;10.38;69.05;99063.93;1779216;79;21866;-50
2021/05/08 11:02:48;;;;;;;0.28;0.20;;;;;;;10.32;69.55;99065.64;1780995;79;21187;-52
2021/05/08 11:05:33;;;;;;;0.20;0.20;;;;;;;10.21;69.93;99073.45;1779024;79;21094;-51
2021/05/08 11:08:29;;;;;;;0.50;0.20;;;;;;;10.10;70.95;99080.78;1782261;79;21377;-52
2021/05/08 11:11:04;;;;;;;0.17;0.17;;;;;;;10.06;71.85;99078.34;1776006;79;21545;-51
2021/05/08 11:13:47;;;;;;;0.30;0.10;;;;;;;10.04;72.46;99095.02;1773558;79;21652;-51
2021/05/08 11:19:00;;;;;;;0.40;0.20;;;;;;;9.96;72.50;99091.42;1870602;75;23934;-52
2021/05/08 11:21:34;;;;;;;0.20;0.20;;;;;;;9.85;72.37;99104.15;1840708;76;21720;-51
2021/05/08 11:24:02;;;;;;;0.50;0.30;;;;;;;9.77;72.36;99112.24;1840115;76;21427;-51
2021/05/08 11:26:33;;;;;;;0.93;0.20;;;;;;;9.66;72.08;99109.27;1841175;75;21055;-51
2021/05/08 11:29:20;;;;;;;0.40;0.20;;;;;;;9.52;71.99;99117.22;1841359;76;21129;-51
2021/05/08 11:31:55;;;;;;;1.25;0.20;;;;;;;9.41;72.24;99117.79;1845445;76;21055;-51
2021/05/08 11:34:27;;;;;;;0.25;0.15;;;;;;;9.34;72.06;99145.93;1843386;76;20945;-51
2021/05/08 11:37:07;;;;;;;0.17;0.10;;;;;;;9.27;71.74;99146.70;1846763;76;22195;-50
2021/05/08 11:39:40;;;;;;;0.80;0.10;;;;;;;9.29;71.81;99138.09;1845382;76;20956;-51
2021/05/08 11:42:17;;;;;;;1.90;0.20;;;;;;;9.31;71.80;99155.48;1839766;75;21138;-51
2021/05/08 11:44:46;;;;;;;0.20;0.10;;;;;;;9.31;71.42;99155.48;1841888;75;20979;-51
2021/05/08 11:47:29;;;;;;;0.63;0.10;;;;;;;9.28;70.81;99155.16;1845362;75;21079;-50
2021/05/08 11:50:07;;;;;;;0.30;0.10;;;;;;;9.25;71.12;99162.52;1842756;76;21367;-52
2021/05/08 11:52:42;;;;;;;0.17;0.00;;;;;;;9.22;71.14;99174.75;1841690;76;21506;-50
2021/05/08 11:55:23;;;;;;;0.20;0.10;;;;;;;9.18;70.94;99187.96;1841623;76;21106;-52
2021/05/08 11:57:59;;;;;;;0.13;0.10;;;;;;;9.07;71.11;99194.74;1841929;75;21083;-52
2021/05/08 12:00:31;;;;;;;0.40;0.20;;;;;;;8.83;71.10;99209.41;1805333;77;21175;-52